sensor_id;sensor_type;location;lat;lon;timestamp;temperature;humidity
20068;DHT22;10194;50.824;7.134;2022-09-21T00:01:19;8.90;99.90
20068;DHT22;10194;50.824;7.134;2022-09-21T00:03:57;8.80;99.90
20068;DHT22;10194;50.824;7.134;2022-09-21T00:06:26;8.80;99.90
20068;DHT22;10194;50.824;7.134;2022-09-21T00:08:54;8.80;99.90
20068;DHT22;10194;50.824;7.134;2022-09-21T00:11:28;8.80;99.90
20068;DHT22;10194;50.824;7.134;2022-09-21T00:14:10;8.70;99.90
20068;DHT22;10194;50.824;7.134;2022-09-21T00:16:42;8.70;99.90
20068;DHT22;10194;50.824;7.134;2022-09-21T00:19:09;8.70;99.90
20068;DHT22;10194;50.824;7.134;2022-09-21T00:21:35;8.70;99.90
20068;DHT22;10194;50.824;7.134;2022-09-21T00:24:03;8.70;99.90
20068;DHT22;10194;50.824;7.134;2022-09-21T00:26:30;8.70;99.90
20068;DHT22;10194;50.824;7.134;2022-09-21T00:28:58;8.70;99.90
20068;DHT22;10194;50.824;7.134;2022-09-21T00:31:27;8.70;99.90
20068;DHT22;10194;50.824;7.134;2022-09-21T00:33:53;8.60;99.90
20068;DHT22;10194;50.824;7.134;2022-09-21T00:36:21;8.60;99.90
20068;DHT22;10194;50.824;7.134;2022-09-21T00:38:51;8.50;99.90
20068;DHT22;10194;50.824;7.134;2022-09-21T00:41:19;8.50;99.90
20068;DHT22;10194;50.824;7.134;2022-09-21T00:46:40;8.50;99.90
20068;DHT22;10194;50.824;7.134;2022-09-21T00:49:07;8.40;99.90
20068;DHT22;10194;50.824;7.134;2022-09-21T00:51:35;8.40;99.90
20068;DHT22;10194;50.824;7.134;2022-09-21T00:54:10;8.40;99.90
20068;DHT22;10194;50.824;7.134;2022-09-21T00:56:40;8.40;99.90
20068;DHT22;10194;50.824;7.134;2022-09-21T00:59:08;8.40;99.90
20068;DHT22;10194;50.824;7.134;2022-09-21T01:01:34;8.30;99.90
20068;DHT22;10194;50.824;7.134;2022-09-21T01:04:03;8.30;99.90
20068;DHT22;10194;50.824;7.134;2022-09-21T01:06:31;8.20;99.90
20068;DHT22;10194;50.824;7.134;2022-09-21T01:08:58;8.20;99.90
20068;DHT22;10194;50.824;7.134;2022-09-21T01:11:43;8.20;99.90
20068;DHT22;10194;50.824;7.134;2022-09-21T01:14:25;8.20;99.90
20068;DHT22;10194;50.824;7.134;2022-09-21T01:17:34;8.10;99.90
20068;DHT22;10194;50.824;7.134;2022-09-21T01:20:43;8.20;99.90
20068;DHT22;10194;50.824;7.134;2022-09-21T01:29:19;8.10;99.90
20068;DHT22;10194;50.824;7.134;2022-09-21T01:32:07;8.10;99.90
20068;DHT22;10194;50.824;7.134;2022-09-21T01:34:46;8.20;99.90
20068;DHT22;10194;50.824;7.134;2022-09-21T01:37:20;8.30;99.90
20068;DHT22;10194;50.824;7.134;2022-09-21T01:39:54;8.40;99.90
20068;DHT22;10194;50.824;7.134;2022-09-21T01:42:25;8.40;99.90
20068;DHT22;10194;50.824;7.134;2022-09-21T01:44:52;8.40;99.90
20068;DHT22;10194;50.824;7.134;2022-09-21T01:47:20;8.40;99.90
20068;DHT22;10194;50.824;7.134;2022-09-21T01:49:51;8.40;99.90
20068;DHT22;10194;50.824;7.134;2022-09-21T01:52:32;8.40;99.90
20068;DHT22;10194;50.824;7.134;2022-09-21T01:55:19;8.30;99.90
20068;DHT22;10194;50.824;7.134;2022-09-21T01:57:58;8.30;99.90
20068;DHT22;10194;50.824;7.134;2022-09-21T02:00:28;8.30;99.90
20068;DHT22;10194;50.824;7.134;2022-09-21T02:03:02;8.20;99.90
20068;DHT22;10194;50.824;7.134;2022-09-21T02:05:46;8.10;99.90
20068;DHT22;10194;50.824;7.134;2022-09-21T02:08:12;8.10;99.90
20068;DHT22;10194;50.824;7.134;2022-09-21T02:10:49;8.10;99.90
20068;DHT22;10194;50.824;7.134;2022-09-21T02:13:17;8.10;99.90
20068;DHT22;10194;50.824;7.134;2022-09-21T02:15:58;8.10;99.90
20068;DHT22;10194;50.824;7.134;2022-09-21T02:18:42;8.00;99.90
20068;DHT22;10194;50.824;7.134;2022-09-21T02:41:59;7.80;99.90
20068;DHT22;10194;50.824;7.134;2022-09-21T02:44:35;7.80;99.90
20068;DHT22;10194;50.824;7.134;2022-09-21T02:49:51;7.80;99.90
20068;DHT22;10194;50.824;7.134;2022-09-21T02:52:20;7.80;99.90
20068;DHT22;10194;50.824;7.134;2022-09-21T02:54:48;7.70;99.90
20068;DHT22;10194;50.824;7.134;2022-09-21T02:57:17;7.70;99.90
20068;DHT22;10194;50.824;7.134;2022-09-21T02:59:44;7.70;99.90
20068;DHT22;10194;50.824;7.134;2022-09-21T03:02:11;7.70;99.90
20068;DHT22;10194;50.824;7.134;2022-09-21T03:04:39;7.70;99.90
20068;DHT22;10194;50.824;7.134;2022-09-21T03:07:06;7.70;99.90
20068;DHT22;10194;50.824;7.134;2022-09-21T03:09:32;7.70;99.90
20068;DHT22;10194;50.824;7.134;2022-09-21T03:11:58;7.60;99.90
20068;DHT22;10194;50.824;7.134;2022-09-21T03:14:24;7.60;99.90
20068;DHT22;10194;50.824;7.134;2022-09-21T03:16:50;7.60;99.90
20068;DHT22;10194;50.824;7.134;2022-09-21T03:19:15;7.60;99.90
20068;DHT22;10194;50.824;7.134;2022-09-21T03:21:42;7.60;99.90
20068;DHT22;10194;50.824;7.134;2022-09-21T03:24:07;7.60;99.90
20068;DHT22;10194;50.824;7.134;2022-09-21T03:26:33;7.70;99.90
20068;DHT22;10194;50.824;7.134;2022-09-21T03:29:00;7.80;99.90
20068;DHT22;10194;50.824;7.134;2022-09-21T03:31:26;7.70;99.90
20068;DHT22;10194;50.824;7.134;2022-09-21T03:33:51;7.70;99.90
20068;DHT22;10194;50.824;7.134;2022-09-21T03:36:17;7.70;99.90
20068;DHT22;10194;50.824;7.134;2022-09-21T03:38:43;7.80;99.90
20068;DHT22;10194;50.824;7.134;2022-09-21T03:41:09;7.70;99.90
20068;DHT22;10194;50.824;7.134;2022-09-21T03:43:35;7.70;99.90
20068;DHT22;10194;50.824;7.134;2022-09-21T03:46:01;7.60;99.90
20068;DHT22;10194;50.824;7.134;2022-09-21T03:48:26;7.50;99.90
20068;DHT22;10194;50.824;7.134;2022-09-21T03:50:52;7.50;99.90
20068;DHT22;10194;50.824;7.134;2022-09-21T03:53:18;7.50;99.90
20068;DHT22;10194;50.824;7.134;2022-09-21T03:55:43;7.50;99.90
20068;DHT22;10194;50.824;7.134;2022-09-21T03:58:09;7.60;99.90
20068;DHT22;10194;50.824;7.134;2022-09-21T04:00:35;7.50;99.90
20068;DHT22;10194;50.824;7.134;2022-09-21T04:03:02;7.50;99.90
20068;DHT22;10194;50.824;7.134;2022-09-21T04:05:29;7.50;99.90
20068;DHT22;10194;50.824;7.134;2022-09-21T04:07:55;7.50;99.90
20068;DHT22;10194;50.824;7.134;2022-09-21T04:10:23;7.40;99.90
20068;DHT22;10194;50.824;7.134;2022-09-21T04:13:01;7.40;99.90
20068;DHT22;10194;50.824;7.134;2022-09-21T04:15:28;7.40;99.90
20068;DHT22;10194;50.824;7.134;2022-09-21T04:17:54;7.40;99.90
20068;DHT22;10194;50.824;7.134;2022-09-21T04:20:21;7.50;99.90
20068;DHT22;10194;50.824;7.134;2022-09-21T04:22:47;7.40;99.90
20068;DHT22;10194;50.824;7.134;2022-09-21T04:25:14;7.50;99.90
20068;DHT22;10194;50.824;7.134;2022-09-21T04:27:40;7.50;99.90
20068;DHT22;10194;50.824;7.134;2022-09-21T04:30:08;7.40;99.90
20068;DHT22;10194;50.824;7.134;2022-09-21T04:32:35;7.30;99.90
20068;DHT22;10194;50.824;7.134;2022-09-21T04:35:01;7.30;99.90
20068;DHT22;10194;50.824;7.134;2022-09-21T04:37:27;7.40;99.90
20068;DHT22;10194;50.824;7.134;2022-09-21T04:39:53;7.30;99.90
20068;DHT22;10194;50.824;7.134;2022-09-21T04:42:18;7.30;99.90
20068;DHT22;10194;50.824;7.134;2022-09-21T04:44:44;7.10;99.90
20068;DHT22;10194;50.824;7.134;2022-09-21T04:47:10;7.10;99.90
20068;DHT22;10194;50.824;7.134;2022-09-21T04:49:36;7.10;99.90
20068;DHT22;10194;50.824;7.134;2022-09-21T04:52:02;7.00;99.90
20068;DHT22;10194;50.824;7.134;2022-09-21T04:54:29;7.10;99.90
20068;DHT22;10194;50.824;7.134;2022-09-21T04:56:54;7.00;99.90
20068;DHT22;10194;50.824;7.134;2022-09-21T04:59:20;7.00;99.90
20068;DHT22;10194;50.824;7.134;2022-09-21T05:01:46;7.00;99.90
20068;DHT22;10194;50.824;7.134;2022-09-21T05:04:12;6.90;99.90
20068;DHT22;10194;50.824;7.134;2022-09-21T05:06:38;7.00;99.90
20068;DHT22;10194;50.824;7.134;2022-09-21T05:09:03;7.00;99.90
20068;DHT22;10194;50.824;7.134;2022-09-21T05:11:47;7.00;99.90
20068;DHT22;10194;50.824;7.134;2022-09-21T05:14:13;6.90;99.90
20068;DHT22;10194;50.824;7.134;2022-09-21T05:16:42;6.90;99.90
20068;DHT22;10194;50.824;7.134;2022-09-21T05:19:08;6.90;99.90
20068;DHT22;10194;50.824;7.134;2022-09-21T05:21:34;7.00;99.90
20068;DHT22;10194;50.824;7.134;2022-09-21T05:24:00;7.10;99.90
20068;DHT22;10194;50.824;7.134;2022-09-21T05:26:26;7.00;99.90
20068;DHT22;10194;50.824;7.134;2022-09-21T05:28:52;7.10;99.90
20068;DHT22;10194;50.824;7.134;2022-09-21T05:37:07;7.20;99.90
20068;DHT22;10194;50.824;7.134;2022-09-21T05:39:36;7.30;99.90
20068;DHT22;10194;50.824;7.134;2022-09-21T05:42:02;7.30;99.90
20068;DHT22;10194;50.824;7.134;2022-09-21T05:44:29;7.30;99.90
20068;DHT22;10194;50.824;7.134;2022-09-21T05:50:24;7.50;99.90
20068;DHT22;10194;50.824;7.134;2022-09-21T05:55:50;7.70;99.90
20068;DHT22;10194;50.824;7.134;2022-09-21T06:03:30;7.80;99.90
20068;DHT22;10194;50.824;7.134;2022-09-21T06:05:57;7.90;99.90
20068;DHT22;10194;50.824;7.134;2022-09-21T06:08:24;8.00;99.90
20068;DHT22;10194;50.824;7.134;2022-09-21T06:10:51;7.90;99.90
20068;DHT22;10194;50.824;7.134;2022-09-21T06:13:17;7.90;99.90
20068;DHT22;10194;50.824;7.134;2022-09-21T06:15:43;8.00;99.90
20068;DHT22;10194;50.824;7.134;2022-09-21T06:18:10;8.00;99.90
20068;DHT22;10194;50.824;7.134;2022-09-21T06:20:36;8.00;99.90
20068;DHT22;10194;50.824;7.134;2022-09-21T06:23:06;8.00;99.90
20068;DHT22;10194;50.824;7.134;2022-09-21T06:25:33;8.10;99.90
20068;DHT22;10194;50.824;7.134;2022-09-21T06:28:11;8.10;99.90
20068;DHT22;10194;50.824;7.134;2022-09-21T06:30:38;8.20;99.90
20068;DHT22;10194;50.824;7.134;2022-09-21T06:33:07;8.40;99.90
20068;DHT22;10194;50.824;7.134;2022-09-21T06:35:34;8.50;99.90
20068;DHT22;10194;50.824;7.134;2022-09-21T06:38:05;8.50;99.90
20068;DHT22;10194;50.824;7.134;2022-09-21T06:40:34;8.60;99.90
20068;DHT22;10194;50.824;7.134;2022-09-21T06:43:02;8.60;99.90
20068;DHT22;10194;50.824;7.134;2022-09-21T06:45:29;8.60;99.90
20068;DHT22;10194;50.824;7.134;2022-09-21T06:47:56;8.60;99.90
20068;DHT22;10194;50.824;7.134;2022-09-21T06:50:22;8.60;99.90
20068;DHT22;10194;50.824;7.134;2022-09-21T06:52:48;8.60;99.90
20068;DHT22;10194;50.824;7.134;2022-09-21T06:55:14;8.70;99.90
20068;DHT22;10194;50.824;7.134;2022-09-21T06:57:40;8.80;99.90
20068;DHT22;10194;50.824;7.134;2022-09-21T07:00:09;9.00;99.90
20068;DHT22;10194;50.824;7.134;2022-09-21T07:02:35;9.20;99.90
20068;DHT22;10194;50.824;7.134;2022-09-21T07:05:02;9.20;99.90
20068;DHT22;10194;50.824;7.134;2022-09-21T07:07:29;9.10;99.90
20068;DHT22;10194;50.824;7.134;2022-09-21T07:09:55;9.30;99.90
20068;DHT22;10194;50.824;7.134;2022-09-21T07:12:23;9.50;99.90
20068;DHT22;10194;50.824;7.134;2022-09-21T07:14:49;9.60;99.90
20068;DHT22;10194;50.824;7.134;2022-09-21T07:17:15;9.70;99.90
20068;DHT22;10194;50.824;7.134;2022-09-21T07:19:41;9.80;99.90
20068;DHT22;10194;50.824;7.134;2022-09-21T07:22:06;9.80;99.90
20068;DHT22;10194;50.824;7.134;2022-09-21T07:24:33;10.10;99.90
20068;DHT22;10194;50.824;7.134;2022-09-21T07:26:58;10.40;99.90
20068;DHT22;10194;50.824;7.134;2022-09-21T07:29:24;10.60;99.90
20068;DHT22;10194;50.824;7.134;2022-09-21T07:31:50;10.70;99.90
20068;DHT22;10194;50.824;7.134;2022-09-21T07:34:16;10.60;99.90
20068;DHT22;10194;50.824;7.134;2022-09-21T07:36:42;10.40;99.90
20068;DHT22;10194;50.824;7.134;2022-09-21T07:39:08;10.80;99.90
20068;DHT22;10194;50.824;7.134;2022-09-21T07:41:35;11.00;99.90
20068;DHT22;10194;50.824;7.134;2022-09-21T07:44:01;10.80;99.90
20068;DHT22;10194;50.824;7.134;2022-09-21T07:46:28;10.60;99.90
20068;DHT22;10194;50.824;7.134;2022-09-21T07:48:54;10.80;99.90
20068;DHT22;10194;50.824;7.134;2022-09-21T07:51:21;11.30;99.90
20068;DHT22;10194;50.824;7.134;2022-09-21T07:53:53;11.80;99.90
20068;DHT22;10194;50.824;7.134;2022-09-21T07:56:22;12.40;99.90
20068;DHT22;10194;50.824;7.134;2022-09-21T07:58:49;12.40;99.90
20068;DHT22;10194;50.824;7.134;2022-09-21T08:01:34;12.50;99.90
20068;DHT22;10194;50.824;7.134;2022-09-21T08:04:06;12.40;99.90
20068;DHT22;10194;50.824;7.134;2022-09-21T08:06:34;12.10;99.90
20068;DHT22;10194;50.824;7.134;2022-09-21T08:09:04;12.00;99.90
20068;DHT22;10194;50.824;7.134;2022-09-21T08:11:31;11.90;99.90
20068;DHT22;10194;50.824;7.134;2022-09-21T08:13:59;12.10;99.90
20068;DHT22;10194;50.824;7.134;2022-09-21T08:16:27;12.30;99.90
20068;DHT22;10194;50.824;7.134;2022-09-21T08:18:54;12.40;99.90
20068;DHT22;10194;50.824;7.134;2022-09-21T08:21:20;12.50;99.90
20068;DHT22;10194;50.824;7.134;2022-09-21T08:23:47;12.20;99.90
20068;DHT22;10194;50.824;7.134;2022-09-21T08:26:17;11.90;99.90
20068;DHT22;10194;50.824;7.134;2022-09-21T08:28:48;12.10;99.90
20068;DHT22;10194;50.824;7.134;2022-09-21T08:31:20;12.20;99.90
20068;DHT22;10194;50.824;7.134;2022-09-21T08:33:49;12.30;99.90
20068;DHT22;10194;50.824;7.134;2022-09-21T08:36:16;12.20;99.90
20068;DHT22;10194;50.824;7.134;2022-09-21T08:38:43;12.10;99.90
20068;DHT22;10194;50.824;7.134;2022-09-21T08:44:14;12.20;99.90
20068;DHT22;10194;50.824;7.134;2022-09-21T08:46:43;12.20;99.90
20068;DHT22;10194;50.824;7.134;2022-09-21T08:49:22;12.30;99.90
20068;DHT22;10194;50.824;7.134;2022-09-21T08:52:00;12.40;99.90
20068;DHT22;10194;50.824;7.134;2022-09-21T08:57:18;12.30;99.90
20068;DHT22;10194;50.824;7.134;2022-09-21T08:59:46;12.50;99.90
20068;DHT22;10194;50.824;7.134;2022-09-21T09:11:27;12.20;99.90
20068;DHT22;10194;50.824;7.134;2022-09-21T09:14:43;12.30;99.90
20068;DHT22;10194;50.824;7.134;2022-09-21T09:17:56;12.40;99.90
20068;DHT22;10194;50.824;7.134;2022-09-21T09:20:30;12.50;99.90
20068;DHT22;10194;50.824;7.134;2022-09-21T09:26:43;12.70;99.90
20068;DHT22;10194;50.824;7.134;2022-09-21T09:29:23;12.80;99.90
20068;DHT22;10194;50.824;7.134;2022-09-21T09:32:00;13.00;99.90
20068;DHT22;10194;50.824;7.134;2022-09-21T09:34:35;13.20;99.90
20068;DHT22;10194;50.824;7.134;2022-09-21T09:37:16;13.30;99.90
20068;DHT22;10194;50.824;7.134;2022-09-21T09:39:44;13.30;99.90
20068;DHT22;10194;50.824;7.134;2022-09-21T09:48:42;13.50;99.90
20068;DHT22;10194;50.824;7.134;2022-09-21T09:51:27;13.70;99.90
20068;DHT22;10194;50.824;7.134;2022-09-21T09:53:57;13.60;99.90
20068;DHT22;10194;50.824;7.134;2022-09-21T09:56:24;13.70;99.90
20068;DHT22;10194;50.824;7.134;2022-09-21T09:58:59;13.90;99.90
20068;DHT22;10194;50.824;7.134;2022-09-21T10:04:06;13.90;99.90
20068;DHT22;10194;50.824;7.134;2022-09-21T10:06:38;14.00;99.90
20068;DHT22;10194;50.824;7.134;2022-09-21T10:09:31;14.20;99.90
20068;DHT22;10194;50.824;7.134;2022-09-21T10:12:22;14.40;99.90
20068;DHT22;10194;50.824;7.134;2022-09-21T10:14:51;14.50;99.90
20068;DHT22;10194;50.824;7.134;2022-09-21T10:17:19;14.60;99.90
20068;DHT22;10194;50.824;7.134;2022-09-21T10:19:45;14.70;99.90
20068;DHT22;10194;50.824;7.134;2022-09-21T10:22:19;14.70;99.90
20068;DHT22;10194;50.824;7.134;2022-09-21T10:24:50;14.70;99.90
20068;DHT22;10194;50.824;7.134;2022-09-21T10:27:27;14.80;99.90
20068;DHT22;10194;50.824;7.134;2022-09-21T10:29:54;14.80;99.90
20068;DHT22;10194;50.824;7.134;2022-09-21T10:32:25;14.90;99.90
20068;DHT22;10194;50.824;7.134;2022-09-21T10:39:53;15.00;99.90
20068;DHT22;10194;50.824;7.134;2022-09-21T10:42:19;15.10;99.90
20068;DHT22;10194;50.824;7.134;2022-09-21T10:44:52;15.10;99.90
20068;DHT22;10194;50.824;7.134;2022-09-21T10:47:42;15.10;99.90
20068;DHT22;10194;50.824;7.134;2022-09-21T10:50:45;15.20;99.90
20068;DHT22;10194;50.824;7.134;2022-09-21T10:53:27;15.20;99.90
20068;DHT22;10194;50.824;7.134;2022-09-21T10:58:37;15.10;99.90
20068;DHT22;10194;50.824;7.134;2022-09-21T11:01:19;15.30;99.90
20068;DHT22;10194;50.824;7.134;2022-09-21T11:04:03;15.10;99.90
20068;DHT22;10194;50.824;7.134;2022-09-21T11:06:37;15.30;99.90
20068;DHT22;10194;50.824;7.134;2022-09-21T11:09:20;15.40;99.90
20068;DHT22;10194;50.824;7.134;2022-09-21T11:11:58;15.50;99.90
20068;DHT22;10194;50.824;7.134;2022-09-21T11:17:27;15.50;99.90
20068;DHT22;10194;50.824;7.134;2022-09-21T11:20:18;15.60;99.90
20068;DHT22;10194;50.824;7.134;2022-09-21T11:23:00;15.80;99.90
20068;DHT22;10194;50.824;7.134;2022-09-21T11:25:48;15.70;99.90
20068;DHT22;10194;50.824;7.134;2022-09-21T11:28:45;15.60;99.90
20068;DHT22;10194;50.824;7.134;2022-09-21T11:31:31;15.70;99.90
20068;DHT22;10194;50.824;7.134;2022-09-21T11:37:16;15.70;99.90
20068;DHT22;10194;50.824;7.134;2022-09-21T11:49:12;16.00;99.90
20068;DHT22;10194;50.824;7.134;2022-09-21T11:55:54;15.90;99.90
20068;DHT22;10194;50.824;7.134;2022-09-21T11:58:53;15.60;99.90
20068;DHT22;10194;50.824;7.134;2022-09-21T12:04:56;15.80;99.90
20068;DHT22;10194;50.824;7.134;2022-09-21T12:07:48;16.10;99.90
20068;DHT22;10194;50.824;7.134;2022-09-21T12:10:38;16.10;99.90
20068;DHT22;10194;50.824;7.134;2022-09-21T12:13:41;16.10;99.90
20068;DHT22;10194;50.824;7.134;2022-09-21T12:19:17;15.90;99.90
20068;DHT22;10194;50.824;7.134;2022-09-21T12:22:08;16.10;99.90
20068;DHT22;10194;50.824;7.134;2022-09-21T12:24:44;16.10;99.90
20068;DHT22;10194;50.824;7.134;2022-09-21T12:27:25;16.20;99.90
20068;DHT22;10194;50.824;7.134;2022-09-21T12:30:20;16.20;99.90
20068;DHT22;10194;50.824;7.134;2022-09-21T12:33:18;16.10;99.50
20068;DHT22;10194;50.824;7.134;2022-09-21T12:35:48;16.00;99.90
20068;DHT22;10194;50.824;7.134;2022-09-21T12:38:42;16.30;99.20
20068;DHT22;10194;50.824;7.134;2022-09-21T12:41:43;16.30;96.70
20068;DHT22;10194;50.824;7.134;2022-09-21T12:47:05;16.30;97.50
20068;DHT22;10194;50.824;7.134;2022-09-21T12:49:40;16.40;96.00
20068;DHT22;10194;50.824;7.134;2022-09-21T12:52:10;16.40;97.10
20068;DHT22;10194;50.824;7.134;2022-09-21T12:55:04;16.30;97.80
20068;DHT22;10194;50.824;7.134;2022-09-21T12:58:16;16.30;98.70
20068;DHT22;10194;50.824;7.134;2022-09-21T13:01:26;16.20;98.50
20068;DHT22;10194;50.824;7.134;2022-09-21T13:04:24;16.40;97.00
20068;DHT22;10194;50.824;7.134;2022-09-21T13:09:58;16.40;98.20
20068;DHT22;10194;50.824;7.134;2022-09-21T13:12:29;16.50;98.10
20068;DHT22;10194;50.824;7.134;2022-09-21T13:15:11;16.60;98.10
20068;DHT22;10194;50.824;7.134;2022-09-21T13:17:37;16.70;98.60
20068;DHT22;10194;50.824;7.134;2022-09-21T13:20:26;16.70;97.90
20068;DHT22;10194;50.824;7.134;2022-09-21T13:22:58;16.80;97.80
20068;DHT22;10194;50.824;7.134;2022-09-21T13:25:29;16.90;96.10
20068;DHT22;10194;50.824;7.134;2022-09-21T13:28:15;16.80;96.00
20068;DHT22;10194;50.824;7.134;2022-09-21T13:45:00;16.60;94.60
20068;DHT22;10194;50.824;7.134;2022-09-21T13:47:37;16.50;96.60
20068;DHT22;10194;50.824;7.134;2022-09-21T13:52:58;16.50;95.90
20068;DHT22;10194;50.824;7.134;2022-09-21T13:55:28;16.60;97.20
20068;DHT22;10194;50.824;7.134;2022-09-21T13:57:57;16.70;96.40
20068;DHT22;10194;50.824;7.134;2022-09-21T14:03:25;16.70;97.20
20068;DHT22;10194;50.824;7.134;2022-09-21T14:06:08;16.50;96.30
20068;DHT22;10194;50.824;7.134;2022-09-21T14:08:38;16.60;96.30
20068;DHT22;10194;50.824;7.134;2022-09-21T14:11:16;16.60;95.90
20068;DHT22;10194;50.824;7.134;2022-09-21T14:14:07;16.70;96.00
20068;DHT22;10194;50.824;7.134;2022-09-21T14:28:12;16.30;96.40
20068;DHT22;10194;50.824;7.134;2022-09-21T14:30:53;16.20;96.10
20068;DHT22;10194;50.824;7.134;2022-09-21T14:33:31;16.10;97.30
20068;DHT22;10194;50.824;7.134;2022-09-21T14:36:04;16.20;97.70
20068;DHT22;10194;50.824;7.134;2022-09-21T14:38:40;16.20;98.00
20068;DHT22;10194;50.824;7.134;2022-09-21T14:41:15;16.20;98.70
20068;DHT22;10194;50.824;7.134;2022-09-21T14:43:49;16.40;97.60
20068;DHT22;10194;50.824;7.134;2022-09-21T14:46:39;16.40;94.00
20068;DHT22;10194;50.824;7.134;2022-09-21T15:00:42;16.00;95.10
20068;DHT22;10194;50.824;7.134;2022-09-21T15:06:01;15.90;98.30
20068;DHT22;10194;50.824;7.134;2022-09-21T15:09:22;15.70;99.70
20068;DHT22;10194;50.824;7.134;2022-09-21T15:12:20;15.60;99.90
20068;DHT22;10194;50.824;7.134;2022-09-21T15:18:20;15.70;99.90
20068;DHT22;10194;50.824;7.134;2022-09-21T15:20:58;15.80;99.90
20068;DHT22;10194;50.824;7.134;2022-09-21T15:23:31;15.70;99.60
20068;DHT22;10194;50.824;7.134;2022-09-21T15:26:06;15.70;99.50
20068;DHT22;10194;50.824;7.134;2022-09-21T15:28:35;15.80;99.10
20068;DHT22;10194;50.824;7.134;2022-09-21T15:31:04;16.00;96.30
20068;DHT22;10194;50.824;7.134;2022-09-21T15:33:36;16.10;94.60
20068;DHT22;10194;50.824;7.134;2022-09-21T15:36:04;16.10;94.20
20068;DHT22;10194;50.824;7.134;2022-09-21T15:38:33;16.30;91.80
20068;DHT22;10194;50.824;7.134;2022-09-21T15:41:01;16.30;92.90
20068;DHT22;10194;50.824;7.134;2022-09-21T15:43:27;16.20;92.70
20068;DHT22;10194;50.824;7.134;2022-09-21T15:46:12;16.30;93.00
20068;DHT22;10194;50.824;7.134;2022-09-21T15:48:39;16.20;93.70
20068;DHT22;10194;50.824;7.134;2022-09-21T15:53:56;16.20;94.00
20068;DHT22;10194;50.824;7.134;2022-09-21T15:56:33;16.20;94.40
20068;DHT22;10194;50.824;7.134;2022-09-21T15:59:05;16.20;93.60
20068;DHT22;10194;50.824;7.134;2022-09-21T16:01:43;16.20;94.00
20068;DHT22;10194;50.824;7.134;2022-09-21T16:04:18;16.10;94.40
20068;DHT22;10194;50.824;7.134;2022-09-21T16:07:02;16.20;94.50
20068;DHT22;10194;50.824;7.134;2022-09-21T16:09:40;16.30;94.10
20068;DHT22;10194;50.824;7.134;2022-09-21T16:14:50;16.00;95.20
20068;DHT22;10194;50.824;7.134;2022-09-21T16:17:36;16.10;95.60
20068;DHT22;10194;50.824;7.134;2022-09-21T16:20:14;16.00;96.40
20068;DHT22;10194;50.824;7.134;2022-09-21T16:22:46;15.90;96.60
20068;DHT22;10194;50.824;7.134;2022-09-21T16:25:26;15.80;96.80
20068;DHT22;10194;50.824;7.134;2022-09-21T16:28:29;15.80;97.70
20068;DHT22;10194;50.824;7.134;2022-09-21T16:30:59;15.80;98.60
20068;DHT22;10194;50.824;7.134;2022-09-21T16:38:49;15.70;99.90
20068;DHT22;10194;50.824;7.134;2022-09-21T16:41:18;15.60;99.70
20068;DHT22;10194;50.824;7.134;2022-09-21T16:43:44;15.50;99.90
20068;DHT22;10194;50.824;7.134;2022-09-21T16:46:13;15.50;99.90
20068;DHT22;10194;50.824;7.134;2022-09-21T16:48:39;15.40;99.90
20068;DHT22;10194;50.824;7.134;2022-09-21T16:51:13;15.30;99.90
20068;DHT22;10194;50.824;7.134;2022-09-21T16:53:40;15.30;99.90
20068;DHT22;10194;50.824;7.134;2022-09-21T16:56:13;15.20;99.90
20068;DHT22;10194;50.824;7.134;2022-09-21T16:58:40;15.10;99.90
20068;DHT22;10194;50.824;7.134;2022-09-21T17:01:09;15.10;99.90
20068;DHT22;10194;50.824;7.134;2022-09-21T17:03:40;15.00;99.90
20068;DHT22;10194;50.824;7.134;2022-09-21T17:06:17;14.90;99.90
20068;DHT22;10194;50.824;7.134;2022-09-21T17:08:45;14.80;99.90
20068;DHT22;10194;50.824;7.134;2022-09-21T17:11:16;14.70;99.90
20068;DHT22;10194;50.824;7.134;2022-09-21T17:13:49;14.50;99.90
20068;DHT22;10194;50.824;7.134;2022-09-21T17:16:17;14.40;99.90
20068;DHT22;10194;50.824;7.134;2022-09-21T17:18:44;14.30;99.90
20068;DHT22;10194;50.824;7.134;2022-09-21T17:21:11;14.20;99.90
20068;DHT22;10194;50.824;7.134;2022-09-21T17:23:37;14.00;99.90
20068;DHT22;10194;50.824;7.134;2022-09-21T17:26:03;13.90;99.90
20068;DHT22;10194;50.824;7.134;2022-09-21T17:28:40;13.70;99.90
20068;DHT22;10194;50.824;7.134;2022-09-21T17:31:15;13.60;99.90
20068;DHT22;10194;50.824;7.134;2022-09-21T17:33:41;13.50;99.90
20068;DHT22;10194;50.824;7.134;2022-09-21T17:36:12;13.40;99.90
20068;DHT22;10194;50.824;7.134;2022-09-21T17:38:38;13.30;99.90
20068;DHT22;10194;50.824;7.134;2022-09-21T17:41:08;13.20;99.90
20068;DHT22;10194;50.824;7.134;2022-09-21T17:43:52;13.10;99.90
20068;DHT22;10194;50.824;7.134;2022-09-21T17:49:11;12.90;99.90
20068;DHT22;10194;50.824;7.134;2022-09-21T17:51:37;12.80;99.90
20068;DHT22;10194;50.824;7.134;2022-09-21T17:54:22;12.70;99.90
20068;DHT22;10194;50.824;7.134;2022-09-21T17:57:18;12.60;99.90
20068;DHT22;10194;50.824;7.134;2022-09-21T18:00:04;12.50;99.90
20068;DHT22;10194;50.824;7.134;2022-09-21T18:02:36;12.50;99.90
20068;DHT22;10194;50.824;7.134;2022-09-21T18:05:14;12.40;99.90
20068;DHT22;10194;50.824;7.134;2022-09-21T18:07:57;12.30;99.90
20068;DHT22;10194;50.824;7.134;2022-09-21T18:10:24;12.20;99.90
20068;DHT22;10194;50.824;7.134;2022-09-21T18:16:33;12.10;99.90
20068;DHT22;10194;50.824;7.134;2022-09-21T18:25:22;11.90;99.90
20068;DHT22;10194;50.824;7.134;2022-09-21T18:27:55;11.80;99.90
20068;DHT22;10194;50.824;7.134;2022-09-21T18:30:25;11.70;99.90
20068;DHT22;10194;50.824;7.134;2022-09-21T18:33:19;11.70;99.90
20068;DHT22;10194;50.824;7.134;2022-09-21T18:38:50;11.60;99.90
20068;DHT22;10194;50.824;7.134;2022-09-21T18:41:36;11.40;99.90
20068;DHT22;10194;50.824;7.134;2022-09-21T18:44:22;11.40;99.90
20068;DHT22;10194;50.824;7.134;2022-09-21T18:55:28;11.10;99.90
20068;DHT22;10194;50.824;7.134;2022-09-21T18:57:58;11.00;99.90
20068;DHT22;10194;50.824;7.134;2022-09-21T19:00:29;11.00;99.90
20068;DHT22;10194;50.824;7.134;2022-09-21T19:03:00;11.00;99.90
20068;DHT22;10194;50.824;7.134;2022-09-21T19:05:28;10.90;99.90
20068;DHT22;10194;50.824;7.134;2022-09-21T19:08:16;10.90;99.90
20068;DHT22;10194;50.824;7.134;2022-09-21T19:11:01;10.80;99.90
20068;DHT22;10194;50.824;7.134;2022-09-21T19:16:30;10.80;99.90
20068;DHT22;10194;50.824;7.134;2022-09-21T19:21:53;10.80;99.90
20068;DHT22;10194;50.824;7.134;2022-09-21T19:24:44;10.70;99.90
20068;DHT22;10194;50.824;7.134;2022-09-21T19:28:05;10.60;99.90
20068;DHT22;10194;50.824;7.134;2022-09-21T19:30:48;10.50;99.90
20068;DHT22;10194;50.824;7.134;2022-09-21T19:33:28;10.40;99.90
20068;DHT22;10194;50.824;7.134;2022-09-21T19:35:56;10.40;99.90
20068;DHT22;10194;50.824;7.134;2022-09-21T19:38:25;10.40;99.90
20068;DHT22;10194;50.824;7.134;2022-09-21T19:40:58;10.30;99.90
20068;DHT22;10194;50.824;7.134;2022-09-21T19:46:46;10.30;99.90